sensor_id;sensor_type;location;lat;lon;timestamp;pressure;altitude;pressure_sealevel;temperature;humidity
46690;BME280;32423;45.398;10.874;2023-01-27T00:02:05;100457.47;;;11.26;41.41
46690;BME280;32423;45.398;10.874;2023-01-27T00:04:57;100457.00;;;11.24;41.28
46690;BME280;32423;45.398;10.874;2023-01-27T00:07:52;100444.22;;;11.16;40.41
46690;BME280;32423;45.398;10.874;2023-01-27T00:10:47;100457.47;;;11.26;43.48
46690;BME280;32423;45.398;10.874;2023-01-27T00:13:59;100458.09;;;11.23;42.19
46690;BME280;32423;45.398;10.874;2023-01-27T00:16:51;100458.44;;;11.22;41.64
46690;BME280;32423;45.398;10.874;2023-01-27T00:19:43;100452.03;;;11.26;42.68
46690;BME280;32423;45.398;10.874;2023-01-27T00:22:35;100458.41;;;11.30;42.60
46690;BME280;32423;45.398;10.874;2023-01-27T00:25:46;100462.56;;;11.36;42.67
46690;BME280;32423;45.398;10.874;2023-01-27T00:28:41;100448.47;;;11.34;42.15
46690;BME280;32423;45.398;10.874;2023-01-27T00:31:35;100453.09;;;11.34;41.97
46690;BME280;32423;45.398;10.874;2023-01-27T00:34:46;100449.94;;;11.32;41.88
46690;BME280;32423;45.398;10.874;2023-01-27T00:37:41;100458.22;;;11.35;41.65
46690;BME280;32423;45.398;10.874;2023-01-27T00:40:35;100452.97;;;11.30;41.63
46690;BME280;32423;45.398;10.874;2023-01-27T00:43:30;100456.94;;;11.33;41.34
46690;BME280;32423;45.398;10.874;2023-01-27T00:46:23;100446.41;;;11.31;40.83
46690;BME280;32423;45.398;10.874;2023-01-27T00:49:15;100452.00;;;11.35;42.37
46690;BME280;32423;45.398;10.874;2023-01-27T00:52:10;100455.38;;;11.32;41.04
46690;BME280;32423;45.398;10.874;2023-01-27T00:55:05;100453.47;;;11.32;41.05
46690;BME280;32423;45.398;10.874;2023-01-27T00:57:55;100450.72;;;11.32;41.43
46690;BME280;32423;45.398;10.874;2023-01-27T01:00:49;100453.09;;;11.34;41.10
46690;BME280;32423;45.398;10.874;2023-01-27T01:03:46;100456.94;;;11.33;40.16
46690;BME280;32423;45.398;10.874;2023-01-27T01:06:38;100465.47;;;11.31;40.56
46690;BME280;32423;45.398;10.874;2023-01-27T01:09:32;100459.66;;;11.33;40.68
46690;BME280;32423;45.398;10.874;2023-01-27T01:12:27;100463.06;;;11.30;39.95
46690;BME280;32423;45.398;10.874;2023-01-27T01:15:17;100456.50;;;11.31;40.24
46690;BME280;32423;45.398;10.874;2023-01-27T01:18:13;100464.00;;;11.34;40.78
46690;BME280;32423;45.398;10.874;2023-01-27T01:21:08;100459.53;;;11.29;39.82
46690;BME280;32423;45.398;10.874;2023-01-27T01:24:02;100450.91;;;11.27;40.19
46690;BME280;32423;45.398;10.874;2023-01-27T01:26:57;100456.03;;;11.20;41.13
46690;BME280;32423;45.398;10.874;2023-01-27T01:29:49;100453.19;;;11.17;40.62
46690;BME280;32423;45.398;10.874;2023-01-27T01:32:41;100454.00;;;11.17;40.42
46690;BME280;32423;45.398;10.874;2023-01-27T01:35:38;100456.38;;;11.19;40.01
46690;BME280;32423;45.398;10.874;2023-01-27T01:38:33;100449.66;;;11.16;40.14
46690;BME280;32423;45.398;10.874;2023-01-27T01:41:28;100456.88;;;11.12;39.66
46690;BME280;32423;45.398;10.874;2023-01-27T01:44:27;100463.91;;;11.13;40.47
46690;BME280;32423;45.398;10.874;2023-01-27T01:47:23;100464.06;;;11.17;40.77
46690;BME280;32423;45.398;10.874;2023-01-27T01:50:18;100459.75;;;11.15;40.45
46690;BME280;32423;45.398;10.874;2023-01-27T01:53:12;100463.59;;;11.14;39.74
46690;BME280;32423;45.398;10.874;2023-01-27T01:56:08;100456.72;;;11.08;40.12
46690;BME280;32423;45.398;10.874;2023-01-27T01:59:05;100460.72;;;11.11;40.61
46690;BME280;32423;45.398;10.874;2023-01-27T02:02:02;100464.25;;;11.11;39.85
46690;BME280;32423;45.398;10.874;2023-01-27T02:05:03;100461.53;;;11.11;40.01
46690;BME280;32423;45.398;10.874;2023-01-27T02:08:04;100457.38;;;11.05;40.28
46690;BME280;32423;45.398;10.874;2023-01-27T02:11:03;100450.00;;;10.97;39.98
46690;BME280;32423;45.398;10.874;2023-01-27T02:13:55;100453.53;;;11.06;40.33
46690;BME280;32423;45.398;10.874;2023-01-27T02:16:47;100454.84;;;11.00;41.23
46690;BME280;32423;45.398;10.874;2023-01-27T02:26:36;100459.00;;;10.89;39.91
46690;BME280;32423;45.398;10.874;2023-01-27T02:29:30;100457.41;;;10.88;39.56
46690;BME280;32423;45.398;10.874;2023-01-27T02:32:30;100455.03;;;10.87;39.77
46690;BME280;32423;45.398;10.874;2023-01-27T02:35:32;100453.75;;;10.84;39.98
46690;BME280;32423;45.398;10.874;2023-01-27T02:38:29;100451.16;;;10.88;41.44
46690;BME280;32423;45.398;10.874;2023-01-27T02:44:25;100453.59;;;10.81;40.61
46690;BME280;32423;45.398;10.874;2023-01-27T02:47:20;100461.09;;;10.84;41.31
46690;BME280;32423;45.398;10.874;2023-01-27T02:50:14;100449.41;;;10.83;40.09
46690;BME280;32423;45.398;10.874;2023-01-27T02:53:09;100443.03;;;10.79;40.83
46690;BME280;32423;45.398;10.874;2023-01-27T02:56:01;100445.75;;;10.79;40.85
46690;BME280;32423;45.398;10.874;2023-01-27T02:58:53;100444.94;;;10.79;40.99
46690;BME280;32423;45.398;10.874;2023-01-27T03:01:49;100449.41;;;10.83;41.54
46690;BME280;32423;45.398;10.874;2023-01-27T03:04:42;100450.69;;;10.77;40.72
46690;BME280;32423;45.398;10.874;2023-01-27T03:07:38;100444.16;;;10.78;41.17
46690;BME280;32423;45.398;10.874;2023-01-27T03:10:32;100444.31;;;10.73;40.72
46690;BME280;32423;45.398;10.874;2023-01-27T03:13:27;100443.19;;;10.74;40.98
46690;BME280;32423;45.398;10.874;2023-01-27T03:16:21;100443.50;;;10.72;41.95
46690;BME280;32423;45.398;10.874;2023-01-27T03:19:30;100450.88;;;10.72;40.90
46690;BME280;32423;45.398;10.874;2023-01-27T03:22:22;100451.84;;;10.76;40.43
46690;BME280;32423;45.398;10.874;2023-01-27T03:25:15;100446.56;;;10.71;40.41
46690;BME280;32423;45.398;10.874;2023-01-27T03:28:10;100444.16;;;10.78;39.91
46690;BME280;32423;45.398;10.874;2023-01-27T03:31:12;100446.41;;;10.76;39.86
46690;BME280;32423;45.398;10.874;2023-01-27T03:34:13;100443.69;;;10.76;39.75
46690;BME280;32423;45.398;10.874;2023-01-27T03:37:12;100438.06;;;10.72;39.89
46690;BME280;32423;45.398;10.874;2023-01-27T03:40:21;100437.78;;;10.65;40.12
46690;BME280;32423;45.398;10.874;2023-01-27T03:43:32;100442.41;;;10.65;40.78
46690;BME280;32423;45.398;10.874;2023-01-27T03:46:43;100442.28;;;10.61;40.96
46690;BME280;32423;45.398;10.874;2023-01-27T03:49:35;100442.59;;;10.60;40.42
46690;BME280;32423;45.398;10.874;2023-01-27T03:52:30;100436.34;;;10.59;40.24
46690;BME280;32423;45.398;10.874;2023-01-27T03:55:24;100441.16;;;10.54;39.91
46690;BME280;32423;45.398;10.874;2023-01-27T03:58:25;100445.31;;;10.60;40.04
46690;BME280;32423;45.398;10.874;2023-01-27T04:01:24;100449.94;;;10.68;40.09
46690;BME280;32423;45.398;10.874;2023-01-27T04:04:18;100447.06;;;10.64;40.56
46690;BME280;32423;45.398;10.874;2023-01-27T04:07:30;100440.66;;;10.60;40.96
46690;BME280;32423;45.398;10.874;2023-01-27T04:10:24;100444.34;;;10.64;41.64
46690;BME280;32423;45.398;10.874;2023-01-27T04:13:16;100443.84;;;10.71;41.39
46690;BME280;32423;45.398;10.874;2023-01-27T04:16:08;100446.56;;;10.71;41.06
46690;BME280;32423;45.398;10.874;2023-01-27T04:19:03;100446.56;;;10.71;40.91
46690;BME280;32423;45.398;10.874;2023-01-27T04:21:57;100438.59;;;10.66;41.08
46690;BME280;32423;45.398;10.874;2023-01-27T04:24:52;100443.69;;;10.67;40.68
46690;BME280;32423;45.398;10.874;2023-01-27T04:27:47;100441.28;;;10.75;39.99
46690;BME280;32423;45.398;10.874;2023-01-27T04:30:42;100434.09;;;10.70;39.88
46690;BME280;32423;45.398;10.874;2023-01-27T04:33:36;100433.16;;;10.66;40.17
46690;BME280;32423;45.398;10.874;2023-01-27T04:36:28;100434.88;;;10.62;40.02
46690;BME280;32423;45.398;10.874;2023-01-27T04:39:23;100439.84;;;10.68;39.84
46690;BME280;32423;45.398;10.874;2023-01-27T04:42:12;100442.59;;;10.60;39.62
46690;BME280;32423;45.398;10.874;2023-01-27T04:45:08;100443.69;;;10.59;39.01
46690;BME280;32423;45.398;10.874;2023-01-27T04:48:00;100449.63;;;10.61;39.13
46690;BME280;32423;45.398;10.874;2023-01-27T04:50:54;100443.84;;;10.62;38.96
46690;BME280;32423;45.398;10.874;2023-01-27T04:53:47;100441.47;;;10.61;38.70
46690;BME280;32423;45.398;10.874;2023-01-27T04:56:52;100448.47;;;10.62;38.77
46690;BME280;32423;45.398;10.874;2023-01-27T04:59:46;100452.81;;;10.54;38.57
46690;BME280;32423;45.398;10.874;2023-01-27T05:02:41;100453.31;;;10.48;38.85
46690;BME280;32423;45.398;10.874;2023-01-27T05:05:36;100447.53;;;10.58;39.13
46690;BME280;32423;45.398;10.874;2023-01-27T05:08:31;100456.97;;;10.52;38.93
46690;BME280;32423;45.398;10.874;2023-01-27T05:11:23;100456.50;;;10.50;38.97
46690;BME280;32423;45.398;10.874;2023-01-27T05:14:15;100468.81;;;10.47;39.39
46690;BME280;32423;45.398;10.874;2023-01-27T05:17:09;100465.28;;;10.47;39.53
46690;BME280;32423;45.398;10.874;2023-01-27T05:20:04;100466.91;;;10.48;39.62
46690;BME280;32423;45.398;10.874;2023-01-27T05:22:58;100470.25;;;10.53;40.38
46690;BME280;32423;45.398;10.874;2023-01-27T05:26:16;100469.94;;;10.55;40.25
46690;BME280;32423;45.398;10.874;2023-01-27T05:29:11;100480.81;;;10.55;39.62
46690;BME280;32423;45.398;10.874;2023-01-27T05:32:06;100479.22;;;10.54;39.59
46690;BME280;32423;45.398;10.874;2023-01-27T05:35:00;100478.09;;;10.55;40.20
46690;BME280;32423;45.398;10.874;2023-01-27T05:37:53;100462.09;;;10.53;39.44
46690;BME280;32423;45.398;10.874;2023-01-27T05:40:47;100476.63;;;10.57;38.78
46690;BME280;32423;45.398;10.874;2023-01-27T05:43:43;100484.00;;;10.57;38.45
46690;BME280;32423;45.398;10.874;2023-01-27T05:46:36;100486.56;;;10.45;38.61
46690;BME280;32423;45.398;10.874;2023-01-27T05:49:31;100492.31;;;10.52;38.11
46690;BME280;32423;45.398;10.874;2023-01-27T05:52:23;100492.31;;;10.43;38.80
46690;BME280;32423;45.398;10.874;2023-01-27T05:55:16;100489.75;;;10.38;38.98
46690;BME280;32423;45.398;10.874;2023-01-27T05:58:10;100495.69;;;10.40;38.67
46690;BME280;32423;45.398;10.874;2023-01-27T06:01:21;100495.69;;;10.40;39.42
46690;BME280;32423;45.398;10.874;2023-01-27T06:04:13;100498.41;;;10.40;39.02
46690;BME280;32423;45.398;10.874;2023-01-27T06:07:08;100503.19;;;10.35;39.34
46690;BME280;32423;45.398;10.874;2023-01-27T06:10:02;100500.31;;;10.40;40.04
46690;BME280;32423;45.398;10.874;2023-01-27T06:12:57;100506.22;;;10.42;39.73
46690;BME280;32423;45.398;10.874;2023-01-27T06:15:51;100507.97;;;10.38;40.60
46690;BME280;32423;45.398;10.874;2023-01-27T06:18:46;100507.38;;;10.41;40.82
46690;BME280;32423;45.398;10.874;2023-01-27T06:21:41;100501.94;;;10.41;41.06
46690;BME280;32423;45.398;10.874;2023-01-27T06:24:35;100508.47;;;10.48;43.12
46690;BME280;32423;45.398;10.874;2023-01-27T06:27:30;100508.63;;;10.52;42.01
46690;BME280;32423;45.398;10.874;2023-01-27T06:30:24;100504.00;;;10.52;40.61
46690;BME280;32423;45.398;10.874;2023-01-27T06:33:19;100503.34;;;10.47;39.80
46690;BME280;32423;45.398;10.874;2023-01-27T06:36:14;100510.22;;;10.53;42.94
46690;BME280;32423;45.398;10.874;2023-01-27T06:39:06;100519.66;;;10.47;41.73
46690;BME280;32423;45.398;10.874;2023-01-27T06:42:01;100517.59;;;10.44;40.31
46690;BME280;32423;45.398;10.874;2023-01-27T06:44:55;100516.78;;;10.35;38.73
46690;BME280;32423;45.398;10.874;2023-01-27T06:47:52;100526.84;;;10.34;38.53
46690;BME280;32423;45.398;10.874;2023-01-27T06:50:46;100525.41;;;10.28;38.88
46690;BME280;32423;45.398;10.874;2023-01-27T06:53:41;100526.84;;;10.25;38.48
46690;BME280;32423;45.398;10.874;2023-01-27T06:56:33;100535.97;;;10.29;38.47
46690;BME280;32423;45.398;10.874;2023-01-27T06:59:27;100534.06;;;10.30;40.07
46690;BME280;32423;45.398;10.874;2023-01-27T07:02:22;100533.41;;;10.24;38.69
46690;BME280;32423;45.398;10.874;2023-01-27T07:05:16;100535.94;;;10.21;38.73
46690;BME280;32423;45.398;10.874;2023-01-27T07:08:08;100528.13;;;10.19;38.37
46690;BME280;32423;45.398;10.874;2023-01-27T07:11:03;100535.16;;;10.20;38.10
46690;BME280;32423;45.398;10.874;2023-01-27T07:13:58;100530.34;;;10.17;37.40
46690;BME280;32423;45.398;10.874;2023-01-27T07:16:52;100542.63;;;10.15;38.23
46690;BME280;32423;45.398;10.874;2023-01-27T07:19:44;100544.22;;;10.16;38.28
46690;BME280;32423;45.398;10.874;2023-01-27T07:22:39;100542.00;;;10.18;37.90
46690;BME280;32423;45.398;10.874;2023-01-27T07:25:31;100546.44;;;10.14;38.33
46690;BME280;32423;45.398;10.874;2023-01-27T07:28:23;100542.28;;;10.08;37.56
46690;BME280;32423;45.398;10.874;2023-01-27T07:31:18;100550.13;;;10.09;38.40
46690;BME280;32423;45.398;10.874;2023-01-27T07:34:12;100553.94;;;10.08;38.19
46690;BME280;32423;45.398;10.874;2023-01-27T07:37:07;100555.56;;;10.09;38.28
46690;BME280;32423;45.398;10.874;2023-01-27T07:40:01;100557.47;;;10.09;37.73
46690;BME280;32423;45.398;10.874;2023-01-27T07:42:58;100554.91;;;10.04;37.84
46690;BME280;32423;45.398;10.874;2023-01-27T07:45:53;100555.34;;;10.06;37.22
46690;BME280;32423;45.398;10.874;2023-01-27T07:48:45;100558.72;;;10.03;37.71
46690;BME280;32423;45.398;10.874;2023-01-27T07:51:37;100560.03;;;10.14;37.87
46690;BME280;32423;45.398;10.874;2023-01-27T07:54:29;100568.06;;;10.19;42.67
46690;BME280;32423;45.398;10.874;2023-01-27T07:57:22;100559.91;;;10.19;39.20
46690;BME280;32423;45.398;10.874;2023-01-27T08:00:15;100570.09;;;10.13;39.05
46690;BME280;32423;45.398;10.874;2023-01-27T08:03:05;100566.78;;;10.16;38.54
46690;BME280;32423;45.398;10.874;2023-01-27T08:05:55;100561.34;;;10.16;38.75
46690;BME280;32423;45.398;10.874;2023-01-27T08:08:49;100562.13;;;10.17;40.09
46690;BME280;32423;45.398;10.874;2023-01-27T08:11:44;100551.88;;;10.14;38.86
46690;BME280;32423;45.398;10.874;2023-01-27T08:14:39;100556.72;;;10.17;38.88
46690;BME280;32423;45.398;10.874;2023-01-27T08:17:33;100555.28;;;10.19;39.71
46690;BME280;32423;45.398;10.874;2023-01-27T08:20:28;100567.13;;;10.23;40.01
46690;BME280;32423;45.398;10.874;2023-01-27T08:23:15;100578.00;;;10.23;41.09
46690;BME280;32423;45.398;10.874;2023-01-27T08:26:09;100567.13;;;10.23;39.98
46690;BME280;32423;45.398;10.874;2023-01-27T08:29:04;100577.69;;;10.25;39.92
46690;BME280;32423;45.398;10.874;2023-01-27T08:32:00;100582.31;;;10.24;39.23
46690;BME280;32423;45.398;10.874;2023-01-27T08:34:52;100576.88;;;10.24;38.87
46690;BME280;32423;45.398;10.874;2023-01-27T08:37:48;100576.38;;;10.22;38.91
46690;BME280;32423;45.398;10.874;2023-01-27T08:40:43;100576.88;;;10.24;38.81
46690;BME280;32423;45.398;10.874;2023-01-27T08:43:36;100575.44;;;10.27;38.75
46690;BME280;32423;45.398;10.874;2023-01-27T08:46:30;100574.16;;;10.24;38.15
46690;BME280;32423;45.398;10.874;2023-01-27T08:49:24;100582.97;;;10.39;45.78
46690;BME280;32423;45.398;10.874;2023-01-27T08:52:19;100583.63;;;10.53;53.00
46690;BME280;32423;45.398;10.874;2023-01-27T08:55:11;100588.31;;;10.61;56.00
46690;BME280;32423;45.398;10.874;2023-01-27T08:58:03;100584.63;;;10.65;55.00
46690;BME280;32423;45.398;10.874;2023-01-27T09:01:00;100588.47;;;10.73;56.15
46690;BME280;32423;45.398;10.874;2023-01-27T09:03:54;100583.97;;;10.60;46.36
46690;BME280;32423;45.398;10.874;2023-01-27T09:06:46;100578.03;;;10.58;45.18
46690;BME280;32423;45.398;10.874;2023-01-27T09:09:41;100580.75;;;10.58;44.42
46690;BME280;32423;45.398;10.874;2023-01-27T09:12:35;100582.22;;;10.55;43.23
46690;BME280;32423;45.398;10.874;2023-01-27T09:15:30;100588.47;;;10.56;42.59
46690;BME280;32423;45.398;10.874;2023-01-27T09:18:25;100586.34;;;10.53;42.42
46690;BME280;32423;45.398;10.874;2023-01-27T09:21:14;100586.84;;;10.55;41.89
46690;BME280;32423;45.398;10.874;2023-01-27T09:24:09;100586.84;;;10.55;41.13
46690;BME280;32423;45.398;10.874;2023-01-27T09:27:01;100595.63;;;10.52;40.73
46690;BME280;32423;45.398;10.874;2023-01-27T09:29:51;100601.56;;;10.54;40.68
46690;BME280;32423;45.398;10.874;2023-01-27T09:32:46;100599.78;;;10.58;41.48
46690;BME280;32423;45.398;10.874;2023-01-27T09:35:48;100604.63;;;10.69;47.22
46690;BME280;32423;45.398;10.874;2023-01-27T09:38:53;100600.44;;;10.63;43.07
46690;BME280;32423;45.398;10.874;2023-01-27T09:51:36;100622.03;;;10.68;44.49
46690;BME280;32423;45.398;10.874;2023-01-27T09:57:54;100612.78;;;10.61;39.37
46690;BME280;32423;45.398;10.874;2023-01-27T10:01:08;100622.69;;;10.65;40.44
46690;BME280;32423;45.398;10.874;2023-01-27T10:04:31;100620.28;;;10.64;39.65
46690;BME280;32423;45.398;10.874;2023-01-27T10:11:00;100614.84;;;10.64;39.74
46690;BME280;32423;45.398;10.874;2023-01-27T10:14:12;100615.50;;;10.69;42.37
46690;BME280;32423;45.398;10.874;2023-01-27T10:17:19;100621.41;;;10.63;38.39
46690;BME280;32423;45.398;10.874;2023-01-27T10:27:00;100611.78;;;10.57;38.17
46690;BME280;32423;45.398;10.874;2023-01-27T10:30:02;100608.09;;;10.53;37.87
46690;BME280;32423;45.398;10.874;2023-01-27T10:36:27;100608.41;;;10.43;36.68
46690;BME280;32423;45.398;10.874;2023-01-27T10:42:53;100599.63;;;10.46;36.58
46690;BME280;32423;45.398;10.874;2023-01-27T10:46:05;100605.88;;;10.46;36.18
46690;BME280;32423;45.398;10.874;2023-01-27T10:49:14;100601.34;;;10.42;35.56
46690;BME280;32423;45.398;10.874;2023-01-27T10:52:16;100602.00;;;10.39;35.50
46690;BME280;32423;45.398;10.874;2023-01-27T10:58:58;100596.56;;;10.39;35.37
46690;BME280;32423;45.398;10.874;2023-01-27T11:01:56;100601.34;;;10.33;34.82
46690;BME280;32423;45.398;10.874;2023-01-27T11:04:54;100602.47;;;10.32;34.87
46690;BME280;32423;45.398;10.874;2023-01-27T11:08:02;100601.84;;;10.35;34.66
46690;BME280;32423;45.398;10.874;2023-01-27T11:11:01;100600.41;;;10.38;34.95
46690;BME280;32423;45.398;10.874;2023-01-27T11:14:29;100592.06;;;10.25;35.10
46690;BME280;32423;45.398;10.874;2023-01-27T11:17:43;100596.72;;;10.34;34.26
46690;BME280;32423;45.398;10.874;2023-01-27T11:20:43;100588.22;;;10.26;34.51
46690;BME280;32423;45.398;10.874;2023-01-27T11:23:41;100584.25;;;10.33;34.29
46690;BME280;32423;45.398;10.874;2023-01-27T11:26:47;100583.13;;;10.34;34.26
46690;BME280;32423;45.398;10.874;2023-01-27T11:30:01;100586.00;;;10.28;34.79
46690;BME280;32423;45.398;10.874;2023-01-27T11:33:02;100580.09;;;10.35;34.90
46690;BME280;32423;45.398;10.874;2023-01-27T11:35:55;100571.75;;;10.32;34.25
46690;BME280;32423;45.398;10.874;2023-01-27T11:38:49;100581.53;;;10.33;34.11
46690;BME280;32423;45.398;10.874;2023-01-27T11:41:48;100580.06;;;10.26;34.15
46690;BME280;32423;45.398;10.874;2023-01-27T11:44:45;100581.22;;;10.34;34.54
46690;BME280;32423;45.398;10.874;2023-01-27T11:47:41;100567.94;;;10.33;34.21
46690;BME280;32423;45.398;10.874;2023-01-27T11:50:34;100570.50;;;10.29;34.25
46690;BME280;32423;45.398;10.874;2023-01-27T11:53:28;100558.16;;;10.23;34.33
46690;BME280;32423;45.398;10.874;2023-01-27T11:56:23;100551.38;;;10.03;33.93
46690;BME280;32423;45.398;10.874;2023-01-27T11:59:24;100545.84;;;10.17;34.06
46690;BME280;32423;45.398;10.874;2023-01-27T12:02:41;100547.13;;;10.19;34.12
46690;BME280;32423;45.398;10.874;2023-01-27T12:05:40;100543.44;;;10.15;34.00
46690;BME280;32423;45.398;10.874;2023-01-27T12:08:43;100541.84;;;10.23;34.37
46690;BME280;32423;45.398;10.874;2023-01-27T12:11:40;100539.50;;;10.39;34.67
46690;BME280;32423;45.398;10.874;2023-01-27T12:14:34;100529.91;;;10.41;34.55
46690;BME280;32423;45.398;10.874;2023-01-27T12:17:37;100531.50;;;10.42;34.83
46690;BME280;32423;45.398;10.874;2023-01-27T12:20:36;100523.19;;;10.47;34.34
46690;BME280;32423;45.398;10.874;2023-01-27T12:23:35;100520.94;;;10.49;34.81
46690;BME280;32423;45.398;10.874;2023-01-27T12:26:33;100507.38;;;10.41;34.66
46690;BME280;32423;45.398;10.874;2023-01-27T12:29:24;100516.94;;;10.47;35.15
46690;BME280;32423;45.398;10.874;2023-01-27T12:32:22;100511.19;;;10.57;35.06
46690;BME280;32423;45.398;10.874;2023-01-27T12:38:36;100505.53;;;11.22;41.69
46690;BME280;32423;45.398;10.874;2023-01-27T12:41:30;100503.09;;;11.76;42.94
46690;BME280;32423;45.398;10.874;2023-01-27T12:44:20;100491.63;;;12.41;43.65
46690;BME280;32423;45.398;10.874;2023-01-27T12:47:30;100485.75;;;12.10;36.82
46690;BME280;32423;45.398;10.874;2023-01-27T12:50:25;100484.66;;;10.71;33.70
46690;BME280;32423;45.398;10.874;2023-01-27T12:53:18;100487.91;;;9.42;34.75
46690;BME280;32423;45.398;10.874;2023-01-27T12:59:09;100482.19;;;10.09;34.60
46690;BME280;32423;45.398;10.874;2023-01-27T13:02:20;100477.13;;;10.42;33.59
46690;BME280;32423;45.398;10.874;2023-01-27T13:05:16;100482.75;;;10.46;33.25
46690;BME280;32423;45.398;10.874;2023-01-27T13:08:14;100474.88;;;10.70;33.80
46690;BME280;32423;45.398;10.874;2023-01-27T13:11:06;100467.38;;;10.33;33.64
46690;BME280;32423;45.398;10.874;2023-01-27T13:14:01;100471.38;;;12.96;30.22
46690;BME280;32423;45.398;10.874;2023-01-27T13:16:56;100478.16;;;20.11;21.06
46690;BME280;32423;45.398;10.874;2023-01-27T13:19:53;100483.72;;;23.19;18.00
46690;BME280;32423;45.398;10.874;2023-01-27T13:22:48;100490.41;;;25.20;16.03
46690;BME280;32423;45.398;10.874;2023-01-27T13:25:39;100486.19;;;24.06;15.85
46690;BME280;32423;45.398;10.874;2023-01-27T13:31:48;100469.34;;;15.22;25.65
46690;BME280;32423;45.398;10.874;2023-01-27T13:34:47;100466.03;;;13.93;28.31
46690;BME280;32423;45.398;10.874;2023-01-27T13:37:52;100464.41;;;14.16;26.83
46690;BME280;32423;45.398;10.874;2023-01-27T13:40:47;100471.38;;;14.13;27.77
46690;BME280;32423;45.398;10.874;2023-01-27T13:43:45;100470.59;;;14.01;27.92
46690;BME280;32423;45.398;10.874;2023-01-27T13:46:41;100471.03;;;14.15;27.05
46690;BME280;32423;45.398;10.874;2023-01-27T13:49:37;100472.50;;;14.12;26.82
46690;BME280;32423;45.398;10.874;2023-01-27T13:52:34;100470.59;;;14.01;28.17
46690;BME280;32423;45.398;10.874;2023-01-27T14:02:13;100466.88;;;13.81;27.77
46690;BME280;32423;45.398;10.874;2023-01-27T14:08:37;100470.56;;;13.16;28.92
46690;BME280;32423;45.398;10.874;2023-01-27T14:18:16;100469.13;;;13.91;29.39
46690;BME280;32423;45.398;10.874;2023-01-27T14:24:38;100461.59;;;13.27;30.38
46690;BME280;32423;45.398;10.874;2023-01-27T14:27:45;100470.09;;;12.81;30.50
46690;BME280;32423;45.398;10.874;2023-01-27T14:30:38;100478.28;;;12.60;32.45
46690;BME280;32423;45.398;10.874;2023-01-27T14:36:54;100471.97;;;11.39;32.76
46690;BME280;32423;45.398;10.874;2023-01-27T14:44:00;100486.53;;;10.88;34.36
46690;BME280;32423;45.398;10.874;2023-01-27T14:52:45;100485.31;;;10.51;34.83
46690;BME280;32423;45.398;10.874;2023-01-27T14:55:42;100490.56;;;10.30;34.32
46690;BME280;32423;45.398;10.874;2023-01-27T14:58:37;100498.09;;;9.76;37.86
46690;BME280;32423;45.398;10.874;2023-01-27T15:01:54;100500.72;;;10.07;36.67
46690;BME280;32423;45.398;10.874;2023-01-27T15:05:29;100493.50;;;9.94;36.63
46690;BME280;32423;45.398;10.874;2023-01-27T15:18:00;100503.38;;;9.42;38.00
46690;BME280;32423;45.398;10.874;2023-01-27T15:21:32;100494.84;;;9.26;37.93
46690;BME280;32423;45.398;10.874;2023-01-27T15:25:17;100486.81;;;9.13;38.31
46690;BME280;32423;45.398;10.874;2023-01-27T15:27:43;100489.94;;;9.06;38.84
46690;BME280;32423;45.398;10.874;2023-01-27T15:30:34;100497.66;;;9.13;40.09
46690;BME280;32423;45.398;10.874;2023-01-27T15:36:41;100495.56;;;8.43;41.91
46690;BME280;32423;45.398;10.874;2023-01-27T15:43:10;100499.16;;;8.52;40.85
46690;BME280;32423;45.398;10.874;2023-01-27T15:46:27;100501.38;;;8.72;40.46
46690;BME280;32423;45.398;10.874;2023-01-27T15:49:23;100509.09;;;8.29;40.89
46690;BME280;32423;45.398;10.874;2023-01-27T15:52:30;100505.97;;;8.49;41.13
46690;BME280;32423;45.398;10.874;2023-01-27T15:55:27;100501.91;;;8.25;41.22
46690;BME280;32423;45.398;10.874;2023-01-27T15:58:40;100506.31;;;8.34;41.51
46690;BME280;32423;45.398;10.874;2023-01-27T16:01:34;100494.25;;;7.50;42.54
46690;BME280;32423;45.398;10.874;2023-01-27T16:04:29;100502.84;;;7.93;42.79
46690;BME280;32423;45.398;10.874;2023-01-27T16:07:29;100516.16;;;8.03;42.63
46690;BME280;32423;45.398;10.874;2023-01-27T16:10:28;100514.28;;;7.90;41.85
46690;BME280;32423;45.398;10.874;2023-01-27T16:13:28;100522.91;;;7.64;42.45
46690;BME280;32423;45.398;10.874;2023-01-27T16:16:27;100529.03;;;7.56;42.41
46690;BME280;32423;45.398;10.874;2023-01-27T16:19:29;100529.00;;;7.43;42.60
46690;BME280;32423;45.398;10.874;2023-01-27T16:22:24;100531.34;;;7.17;44.06
46690;BME280;32423;45.398;10.874;2023-01-27T16:25:24;100541.44;;;7.11;44.06
46690;BME280;32423;45.398;10.874;2023-01-27T16:28:26;100544.28;;;6.87;44.31
46690;BME280;32423;45.398;10.874;2023-01-27T16:31:22;100541.41;;;6.65;44.81
46690;BME280;32423;45.398;10.874;2023-01-27T16:34:21;100545.63;;;6.90;44.93
46690;BME280;32423;45.398;10.874;2023-01-27T16:37:21;100552.13;;;6.70;44.23
46690;BME280;32423;45.398;10.874;2023-01-27T16:40:20;100554.69;;;6.62;44.71
46690;BME280;32423;45.398;10.874;2023-01-27T16:43:47;100552.22;;;6.98;44.63
46690;BME280;32423;45.398;10.874;2023-01-27T16:46:48;100556.00;;;7.15;44.62
46690;BME280;32423;45.398;10.874;2023-01-27T16:49:44;100562.97;;;7.03;44.60
46690;BME280;32423;45.398;10.874;2023-01-27T16:52:40;100563.63;;;7.27;44.76
46690;BME280;32423;45.398;10.874;2023-01-27T16:55:33;100565.53;;;7.26;44.25
46690;BME280;32423;45.398;10.874;2023-01-27T16:58:24;100564.72;;;6.94;45.27